This is the latest recevied weather packets stored in our database for station/object VK2OB. If no packets are shown the sender has not sent any weather packets the latest 10 day(s).
| Time | Temp. | Humidity | Pressure | Rain* | Wind** | Luminosity | Snow |
|---|---|---|---|---|---|---|---|
| 1787370669 | 26.67° C | 33% | 1018.6 hPa | 0 mm | - | - | - |
| 1787368102 | 25.56° C | 41% | 1018.9 hPa | 0 mm | - | - | - |
| 1787367168 | 26.11° C | 37% | 1019.1 hPa | 0 mm | - | - | - |
| 1787366718 | 25.56° C | 40% | 1019.1 hPa | 0 mm | - | - | - |
| 1787366419 | 26.11° C | 40% | 1019 hPa | 0 mm | - | - | - |
| 1787365821 | 25.56° C | 40% | 1019.3 hPa | 0 mm | - | - | - |
| 1787365522 | 25.56° C | 40% | 1019.3 hPa | 0 mm | - | - | - |
| 1787364625 | 25.56° C | 41% | 1019.6 hPa | 0 mm | - | - | - |
| 1787364326 | 25.56° C | 41% | 1019.6 hPa | 0 mm | - | - | - |
| 1787364027 | 25° C | 44% | 1019.7 hPa | 0 mm | - | - | - |
| 1787362830 | 22.78° C | 49% | 1020 hPa | 0 mm | - | - | - |
| 1787362530 | 22.78° C | 49% | 1020.1 hPa | 0 mm | - | - | - |
| 1787361930 | 22.78° C | 49% | 1020.4 hPa | 0 mm | - | - | - |
| 1787361630 | 23.33° C | 49% | 1020.4 hPa | 0 mm | - | - | - |
| 1787360732 | 22.22° C | 49% | 1020.8 hPa | 0 mm | - | - | - |
| 1787360432 | 22.78° C | 50% | 1020.7 hPa | 0 mm | - | - | - |
| 1787360132 | 22.22° C | 51% | 1020.8 hPa | 0 mm | - | - | - |
| 1787359236 | 20° C | 58% | 1020.8 hPa | 0 mm | - | - | - |
| 1787358937 | 20° C | 59% | 1020.7 hPa | 0 mm | - | - | - |
| 1787358040 | 20° C | 61% | 1021.1 hPa | 0 mm | - | - | - |
| 1787357741 | 20° C | 61% | 1021.1 hPa | 0 mm | - | - | - |
| 1787357442 | 19.44° C | 64% | 1021 hPa | 0 mm | - | - | - |
* Rain latest hour (hover to see other rain measurements)
** Current wind speed in m/s (hover to see current wind gust speed)